createdAt,value
2023-05-10T00:05:16.687Z,100802.77
2023-05-10T00:10:42.280Z,100798.98
2023-05-10T00:16:08.567Z,100794.59
2023-05-10T00:21:34.371Z,100789.86
2023-05-10T00:27:00.154Z,100782.91
2023-05-10T00:32:26.484Z,100772.14
2023-05-10T00:37:52.228Z,100766.62
2023-05-10T00:43:18.128Z,100762.79
2023-05-10T00:48:45.227Z,100759.51
2023-05-10T00:54:12.060Z,100752.41
2023-05-10T00:59:38.718Z,100748.59
2023-05-10T01:05:07.322Z,100745.02
2023-05-10T01:10:33.543Z,100740.03
2023-05-10T01:16:00.226Z,100735.16
2023-05-10T01:21:44.854Z,100727.23
2023-05-10T01:27:41.462Z,100725.64
2023-05-10T01:33:16.470Z,100721.64
2023-05-10T01:38:50.703Z,100717.64
2023-05-10T01:44:23.503Z,100714.14
2023-05-10T01:49:58.519Z,100714.63
2023-05-10T01:55:28.288Z,100715.06
2023-05-10T02:00:56.580Z,100714.37
2023-05-10T02:06:23.316Z,100713.39
2023-05-10T02:11:51.163Z,100705.70
2023-05-10T02:17:19.882Z,100706.56
2023-05-10T02:22:47.983Z,100705.16
2023-05-10T02:28:18.949Z,100697.73
2023-05-10T02:33:45.985Z,100692.25
2023-05-10T02:39:13.582Z,100692.08
2023-05-10T02:44:35.040Z,100692.06
2023-05-10T02:50:00.843Z,100692.73
2023-05-10T02:55:31.793Z,100692.19
2023-05-10T03:00:57.649Z,100693.31
2023-05-10T03:06:23.775Z,100695.50
2023-05-10T03:12:05.256Z,100695.41
2023-05-10T03:17:47.036Z,100693.52
2023-05-10T03:23:17.053Z,100685.77
2023-05-10T03:28:46.342Z,100685.48
2023-05-10T03:34:13.619Z,100681.42
2023-05-10T03:39:39.337Z,100683.65
2023-05-10T03:45:05.081Z,100681.63
2023-05-10T03:50:31.768Z,100680.90
2023-05-10T03:55:57.420Z,100676.36
2023-05-10T04:01:23.217Z,100678.61
2023-05-10T04:06:48.815Z,100678.04
2023-05-10T04:12:14.379Z,100678.52
2023-05-10T04:17:40.020Z,100672.48
2023-05-10T04:23:05.974Z,100667.10
2023-05-10T04:28:31.582Z,100668.98
2023-05-10T04:33:59.071Z,100666.98
2023-05-10T04:39:25.733Z,100665.02
2023-05-10T04:44:51.714Z,100668.03
2023-05-10T04:50:17.529Z,100661.92
2023-05-10T04:55:43.549Z,100657.44
2023-05-10T05:01:09.439Z,100661.61
2023-05-10T05:06:58.030Z,100660.08
2023-05-10T05:12:21.750Z,100661.90
2023-05-10T05:17:47.505Z,100664.67
2023-05-10T05:23:13.305Z,100656.90
2023-05-10T05:28:39.893Z,100652.67
2023-05-10T05:34:05.609Z,100655.08
2023-05-10T05:39:31.333Z,100653.58
2023-05-10T05:44:57.470Z,100647.27
2023-05-10T05:50:23.508Z,100646.70
2023-05-10T05:55:40.188Z,100646.75
2023-05-10T06:01:05.970Z,100642.27
2023-05-10T06:06:25.460Z,100642.55
2023-05-10T06:11:51.318Z,100641.43
2023-05-10T06:17:17.353Z,100642.73
2023-05-10T06:22:43.400Z,100646.46
2023-05-10T06:28:09.217Z,100643.19
2023-05-10T06:33:34.954Z,100647.54
2023-05-10T06:39:00.697Z,100644.06
2023-05-10T06:44:26.779Z,100643.27
2023-05-10T06:49:52.581Z,100644.86
2023-05-10T06:55:18.651Z,100648.48
2023-05-10T07:00:43.924Z,100639.00
2023-05-10T07:06:15.679Z,100643.54
2023-05-10T07:11:47.951Z,100634.00
2023-05-10T07:17:13.706Z,100638.06
2023-05-10T07:22:39.562Z,100632.81
2023-05-10T07:28:05.326Z,100625.95
2023-05-10T07:33:32.255Z,100624.34
2023-05-10T07:38:58.153Z,100635.64
2023-05-10T07:44:23.875Z,100638.02
2023-05-10T07:49:49.904Z,100633.70
2023-05-10T07:55:15.878Z,100628.70
2023-05-10T08:00:42.126Z,100622.21
2023-05-10T08:06:06.473Z,100620.48
2023-05-10T08:11:34.329Z,100615.87
2023-05-10T08:17:01.540Z,100621.14
2023-05-10T08:22:27.520Z,100619.55
2023-05-10T08:27:53.379Z,100617.20
2023-05-10T08:33:12.296Z,100620.10
2023-05-10T08:38:39.081Z,100622.03
2023-05-10T08:44:06.977Z,100625.18
2023-05-10T08:49:37.490Z,100625.69
2023-05-10T08:54:54.356Z,100624.25
2023-05-10T09:00:20.718Z,100624.56
2023-05-10T09:05:46.528Z,100621.32
2023-05-10T09:11:12.610Z,100620.36
2023-05-10T09:16:38.488Z,100621.24
2023-05-10T09:22:03.132Z,100622.01
2023-05-10T09:27:29.170Z,100621.85
2023-05-10T09:32:52.060Z,100619.52
2023-05-10T09:38:19.885Z,100623.30
2023-05-10T09:43:45.865Z,100625.24
2023-05-10T09:49:11.706Z,100623.52
2023-05-10T09:54:38.217Z,100622.58
2023-05-10T10:00:06.411Z,100628.15
2023-05-10T10:05:34.776Z,100624.48
2023-05-10T10:11:01.508Z,100627.90
2023-05-10T10:16:29.541Z,100629.01
2023-05-10T10:21:55.605Z,100619.64
2023-05-10T10:27:29.060Z,100618.05
2023-05-10T10:33:13.258Z,100619.18
2023-05-10T10:38:46.494Z,100618.32
2023-05-10T10:44:32.289Z,100613.09
2023-05-10T10:50:09.611Z,100619.11
2023-05-10T10:55:38.431Z,100626.37
2023-05-10T11:01:04.265Z,100621.98
2023-05-10T11:06:30.252Z,100617.80
2023-05-10T11:11:57.280Z,100610.16
2023-05-10T11:17:43.830Z,100614.66
2023-05-10T11:23:16.344Z,100603.17
2023-05-10T11:28:42.150Z,100606.06
2023-05-10T11:34:09.466Z,100610.70
2023-05-10T11:39:47.140Z,100606.56
2023-05-10T11:45:13.353Z,100601.35
2023-05-10T11:50:40.046Z,100601.45
2023-05-10T11:56:06.040Z,100603.00
2023-05-10T12:01:32.884Z,100612.28
2023-05-10T12:07:02.650Z,100612.18
2023-05-10T12:12:28.699Z,100612.71
2023-05-10T12:17:54.774Z,100612.29
2023-05-10T12:23:23.070Z,100610.77
2023-05-10T12:28:53.914Z,100612.12
2023-05-10T12:34:18.185Z,100618.09
2023-05-10T12:39:44.709Z,100613.27
2023-05-10T12:45:10.618Z,100615.38
2023-05-10T12:50:36.717Z,100612.11
2023-05-10T12:56:02.358Z,100618.14
2023-05-10T13:01:29.076Z,100620.15
2023-05-10T13:06:54.850Z,100620.57
2023-05-10T13:12:20.827Z,100621.63
2023-05-10T13:17:42.740Z,100620.09
2023-05-10T13:23:03.544Z,100610.93
2023-05-10T13:28:29.810Z,100606.98
2023-05-10T13:33:55.650Z,100603.60
2023-05-10T13:39:22.324Z,100608.73
2023-05-10T13:44:48.041Z,100599.73
2023-05-10T13:50:13.902Z,100596.20
2023-05-10T13:55:39.867Z,100602.30
2023-05-10T14:01:05.905Z,100598.66
2023-05-10T14:06:31.899Z,100602.48
2023-05-10T14:11:57.743Z,100603.00
2023-05-10T14:17:23.673Z,100596.91
2023-05-10T14:22:50.884Z,100586.52
2023-05-10T14:28:16.940Z,100591.40
2023-05-10T14:33:43.975Z,100589.41
2023-05-10T14:39:09.821Z,100587.31
2023-05-10T14:44:35.477Z,100590.09
2023-05-10T14:50:01.290Z,100591.88
2023-05-10T14:55:29.047Z,100589.41
2023-05-10T15:00:55.017Z,100589.91
2023-05-10T15:06:21.131Z,100588.62
2023-05-10T15:11:47.046Z,100589.20
2023-05-10T15:17:12.701Z,100591.52
2023-05-10T15:22:38.551Z,100592.08
2023-05-10T15:28:04.247Z,100592.20
2023-05-10T15:33:30.134Z,100595.98
2023-05-10T15:38:55.826Z,100596.83
2023-05-10T15:44:21.893Z,100595.86
2023-05-10T15:49:47.711Z,100596.32
2023-05-10T15:55:13.653Z,100596.55
2023-05-10T16:00:40.319Z,100597.14
2023-05-10T16:06:06.497Z,100601.28
2023-05-10T16:11:32.289Z,100607.41
2023-05-10T16:16:58.277Z,100611.98
2023-05-10T16:22:24.403Z,100616.27
2023-05-10T16:27:50.463Z,100620.79
2023-05-10T16:33:06.893Z,100624.67
2023-05-10T16:38:32.595Z,100629.80
2023-05-10T16:43:58.527Z,100630.58
2023-05-10T16:49:26.123Z,100637.20
2023-05-10T16:54:45.914Z,100649.24
2023-05-10T17:00:14.496Z,100658.77
2023-05-10T17:05:40.250Z,100665.11
2023-05-10T17:11:06.521Z,100673.52
2023-05-10T17:16:32.335Z,100680.26
2023-05-10T17:21:58.362Z,100689.23
2023-05-10T17:27:24.614Z,100695.67
2023-05-10T17:32:50.334Z,100701.60
2023-05-10T17:38:16.486Z,100706.77
2023-05-10T17:43:43.153Z,100717.02
2023-05-10T17:49:09.191Z,100723.80
2023-05-10T17:54:35.034Z,100723.92
2023-05-10T18:00:01.082Z,100731.48
2023-05-10T18:05:28.095Z,100738.18
2023-05-10T18:10:54.308Z,100745.05
2023-05-10T18:16:13.572Z,100746.29
2023-05-10T18:21:29.805Z,100754.66
2023-05-10T18:26:55.518Z,100762.25
2023-05-10T18:32:21.758Z,100770.90
2023-05-10T18:37:47.457Z,100774.63
2023-05-10T18:43:13.537Z,100784.04
2023-05-10T18:48:39.273Z,100791.74
2023-05-10T18:54:05.317Z,100799.66
2023-05-10T18:59:32.267Z,100804.09
2023-05-10T19:04:58.491Z,100812.16
2023-05-10T19:10:24.774Z,100818.90
2023-05-10T19:15:50.666Z,100827.23
2023-05-10T19:21:17.628Z,100830.66
2023-05-10T19:26:43.419Z,100833.34
2023-05-10T19:32:09.274Z,100841.34
2023-05-10T19:37:35.166Z,100843.98
2023-05-10T19:43:01.130Z,100842.08
2023-05-10T19:48:27.571Z,100846.05
2023-05-10T19:53:54.032Z,100852.26
2023-05-10T19:59:10.295Z,100850.52
2023-05-10T20:04:36.283Z,100855.58
2023-05-10T20:10:02.531Z,100853.64
2023-05-10T20:15:30.210Z,100856.46
2023-05-10T20:20:56.108Z,100863.27
2023-05-10T20:26:22.332Z,100864.95
2023-05-10T20:31:48.167Z,100866.42
2023-05-10T20:37:12.767Z,100869.80
2023-05-10T20:42:38.813Z,100876.71
2023-05-10T20:48:04.673Z,100875.46
2023-05-10T20:53:30.681Z,100874.04
2023-05-10T20:58:56.315Z,100878.55
2023-05-10T21:04:15.056Z,100873.86
2023-05-10T21:09:40.727Z,100875.50
2023-05-10T21:15:06.643Z,100879.21
2023-05-10T21:20:34.180Z,100885.21
2023-05-10T21:26:00.301Z,100886.08
2023-05-10T21:31:26.154Z,100890.20
2023-05-10T21:36:52.291Z,100891.52
2023-05-10T21:42:17.983Z,100895.20
2023-05-10T21:47:43.983Z,100896.02
2023-05-10T21:53:09.692Z,100897.02
2023-05-10T21:58:35.745Z,100903.52
2023-05-10T22:04:01.430Z,100899.93
2023-05-10T22:09:27.724Z,100903.27
2023-05-10T22:15:06.486Z,100907.04
2023-05-10T22:20:35.894Z,100909.48
2023-05-10T22:26:01.589Z,100914.64
2023-05-10T22:31:33.054Z,100913.77
2023-05-10T22:36:57.614Z,100916.10
2023-05-10T22:42:23.389Z,100920.69
2023-05-10T22:47:49.272Z,100919.65
2023-05-10T22:53:15.395Z,100916.77
2023-05-10T22:58:41.353Z,100919.87
2023-05-10T23:04:07.400Z,100919.16
2023-05-10T23:09:33.203Z,100916.33
2023-05-10T23:14:59.030Z,100918.29
2023-05-10T23:20:25.545Z,100924.48
2023-05-10T23:25:51.551Z,100919.37
2023-05-10T23:31:18.848Z,100917.77
2023-05-10T23:36:44.716Z,100920.59
2023-05-10T23:42:02.017Z,100925.60
2023-05-10T23:47:27.778Z,100927.48
2023-05-10T23:52:53.638Z,100928.52
2023-05-10T23:58:19.410Z,100926.23
